createdAt,value
2022-12-23T00:01:14.145Z,28.77
2022-12-23T00:03:41.310Z,22.58
2022-12-23T00:06:10.465Z,27.02
2022-12-23T00:08:37.460Z,20.27
2022-12-23T00:11:06.939Z,28.13
2022-12-23T00:13:51.825Z,33.22
2022-12-23T00:16:18.451Z,27.05
2022-12-23T00:18:45.059Z,73.63
2022-12-23T00:21:14.617Z,50.00
2022-12-23T00:23:44.034Z,36.70
2022-12-23T00:26:16.386Z,39.70
2022-12-23T00:28:43.354Z,47.00
2022-12-23T00:31:11.205Z,37.70
2022-12-23T00:33:40.596Z,47.88
2022-12-23T00:36:18.038Z,41.92
2022-12-23T00:39:04.249Z,48.92
2022-12-23T00:41:49.845Z,80.15
2022-12-23T00:44:16.468Z,49.97
2022-12-23T00:46:43.050Z,35.13
2022-12-23T00:49:32.052Z,38.38
2022-12-23T00:51:59.276Z,27.15
2022-12-23T00:54:26.051Z,24.38
2022-12-23T00:56:52.948Z,41.40
2022-12-23T00:59:19.653Z,23.23
2022-12-23T01:02:05.642Z,21.17
2022-12-23T01:04:51.098Z,28.80
2022-12-23T01:07:17.792Z,33.72
2022-12-23T01:09:44.440Z,32.55
2022-12-23T01:12:11.005Z,21.50
2022-12-23T01:14:37.720Z,48.13
2022-12-23T01:17:06.671Z,29.10
2022-12-23T01:19:33.809Z,20.13
2022-12-23T01:22:00.443Z,23.55
2022-12-23T01:24:31.899Z,22.30
2022-12-23T01:26:58.774Z,22.00
2022-12-23T01:29:25.873Z,21.25
2022-12-23T01:31:52.498Z,23.88
2022-12-23T01:34:19.462Z,24.85
2022-12-23T01:36:46.052Z,26.75
2022-12-23T01:39:12.708Z,21.60
2022-12-23T01:41:58.000Z,19.20
2022-12-23T01:44:57.702Z,17.52
2022-12-23T01:47:33.530Z,14.90
2022-12-23T01:50:06.466Z,21.27
2022-12-23T01:52:37.835Z,20.77
2022-12-23T01:55:05.021Z,19.33
2022-12-23T01:57:31.724Z,23.23
2022-12-23T02:00:36.649Z,23.38
2022-12-23T02:03:21.779Z,22.80
2022-12-23T02:05:48.755Z,19.48
2022-12-23T02:08:35.750Z,20.55
2022-12-23T02:11:12.593Z,20.15
2022-12-23T02:14:16.536Z,18.48
2022-12-23T02:16:55.132Z,19.23
2022-12-23T02:19:45.983Z,17.83
2022-12-23T02:22:32.287Z,19.70
2022-12-23T02:24:58.882Z,26.23
2022-12-23T02:27:27.526Z,24.38
2022-12-23T02:30:28.415Z,20.55
2022-12-23T02:33:03.163Z,21.30
2022-12-23T02:36:04.954Z,23.27
2022-12-23T02:39:14.407Z,20.35
2022-12-23T02:41:59.045Z,18.45
2022-12-23T02:45:01.192Z,18.73
2022-12-23T02:47:39.680Z,21.20
2022-12-23T02:50:11.870Z,18.10
2022-12-23T02:52:41.301Z,21.30
2022-12-23T02:55:16.352Z,25.30
2022-12-23T02:57:46.988Z,16.70
2022-12-23T03:00:15.212Z,23.35
2022-12-23T03:02:43.539Z,22.02
2022-12-23T03:05:32.566Z,21.30
2022-12-23T03:08:03.281Z,31.25
2022-12-23T03:11:04.392Z,27.08
2022-12-23T03:14:08.375Z,26.45
2022-12-23T03:17:13.246Z,23.95
2022-12-23T03:19:51.505Z,24.70
2022-12-23T03:22:26.261Z,28.38
2022-12-23T03:25:00.225Z,57.90
2022-12-23T03:27:41.111Z,37.55
2022-12-23T03:30:29.331Z,39.35
2022-12-23T03:33:01.959Z,38.53
2022-12-23T03:35:36.963Z,47.60
2022-12-23T03:38:04.742Z,31.67
2022-12-23T03:40:41.649Z,30.40
2022-12-23T03:43:18.636Z,23.27
2022-12-23T03:45:51.388Z,26.25
2022-12-23T03:48:38.579Z,25.35
2022-12-23T03:51:13.711Z,42.55
2022-12-23T03:53:47.276Z,38.58
2022-12-23T03:56:19.102Z,44.42
2022-12-23T03:58:58.127Z,46.75
2022-12-23T04:01:50.513Z,60.60
2022-12-23T04:04:29.352Z,49.08
2022-12-23T04:07:00.929Z,43.38
2022-12-23T04:09:29.140Z,39.38
2022-12-23T04:11:58.292Z,39.47
2022-12-23T04:14:24.861Z,33.72
2022-12-23T04:16:55.533Z,31.67
2022-12-23T04:19:22.404Z,35.75
2022-12-23T04:21:48.968Z,28.38
2022-12-23T04:24:15.668Z,36.58
2022-12-23T04:26:42.214Z,30.15
2022-12-23T04:29:08.775Z,23.17
2022-12-23T04:31:35.395Z,17.70
2022-12-23T04:34:02.075Z,19.50
2022-12-23T04:36:28.610Z,14.00
2022-12-23T04:38:55.228Z,20.70
2022-12-23T04:41:21.883Z,21.02
2022-12-23T04:43:52.994Z,21.70
2022-12-23T04:46:20.739Z,24.23
2022-12-23T04:48:47.443Z,25.52
2022-12-23T04:51:14.167Z,30.08
2022-12-23T04:53:40.768Z,31.52
2022-12-23T04:56:07.445Z,39.75
2022-12-23T04:58:34.099Z,40.72
2022-12-23T05:01:05.734Z,53.33
2022-12-23T05:03:33.122Z,57.05
2022-12-23T05:05:59.832Z,52.67
2022-12-23T05:08:26.454Z,49.92
2022-12-23T05:10:53.059Z,47.33
2022-12-23T05:13:19.655Z,48.83
2022-12-23T05:15:48.990Z,41.25
2022-12-23T05:18:16.185Z,47.70
2022-12-23T05:20:43.021Z,58.20
2022-12-23T05:23:10.091Z,41.65
2022-12-23T05:25:37.898Z,64.50
2022-12-23T05:28:06.089Z,84.10
2022-12-23T05:30:32.660Z,79.53
2022-12-23T05:32:59.260Z,98.45
2022-12-23T05:35:27.143Z,83.10
2022-12-23T05:37:54.247Z,78.13
2022-12-23T05:40:25.069Z,74.80
2022-12-23T05:42:56.130Z,65.03
2022-12-23T05:45:23.058Z,65.03
2022-12-23T05:47:49.604Z,70.65
2022-12-23T05:50:16.256Z,81.18
2022-12-23T05:52:42.874Z,78.50
2022-12-23T05:55:09.641Z,86.80
2022-12-23T05:57:36.260Z,84.80
2022-12-23T06:00:04.156Z,74.53
2022-12-23T06:02:31.085Z,46.53
2022-12-23T06:04:57.881Z,33.55
2022-12-23T06:07:24.426Z,24.45
2022-12-23T06:09:50.961Z,22.95
2022-12-23T06:12:17.573Z,44.08
2022-12-23T06:14:44.210Z,52.78
2022-12-23T06:17:10.772Z,52.10
2022-12-23T06:19:37.403Z,35.58
2022-12-23T06:22:03.994Z,78.32
2022-12-23T06:24:30.639Z,57.97
2022-12-23T06:26:57.671Z,75.30
2022-12-23T06:29:25.052Z,48.60
2022-12-23T06:31:51.811Z,65.63
2022-12-23T06:34:18.543Z,69.55
2022-12-23T06:36:45.129Z,62.40
2022-12-23T06:39:11.885Z,85.25
2022-12-23T06:41:38.515Z,62.20
2022-12-23T06:44:05.394Z,68.63
2022-12-23T06:46:32.210Z,66.63
2022-12-23T06:48:58.838Z,58.17
2022-12-23T06:51:25.409Z,73.85
2022-12-23T06:53:51.989Z,66.18
2022-12-23T06:56:18.871Z,71.68
2022-12-23T06:58:45.557Z,75.30
2022-12-23T07:01:12.310Z,77.30
2022-12-23T07:03:39.034Z,80.72
2022-12-23T07:06:05.948Z,85.75
2022-12-23T07:08:32.549Z,117.82
2022-12-23T07:11:03.560Z,143.85
2022-12-23T07:13:30.883Z,134.93
2022-12-23T07:15:58.023Z,139.48
2022-12-23T07:18:25.694Z,112.10
2022-12-23T07:20:52.709Z,186.70
2022-12-23T07:23:19.349Z,184.30
2022-12-23T07:25:45.917Z,154.60
2022-12-23T07:28:12.492Z,84.50
2022-12-23T07:30:39.115Z,62.28
2022-12-23T07:33:05.701Z,59.85
2022-12-23T07:35:32.297Z,36.28
2022-12-23T07:37:58.862Z,43.78
2022-12-23T07:40:26.404Z,39.72
2022-12-23T07:42:58.505Z,44.45
2022-12-23T07:45:26.283Z,34.28
2022-12-23T07:47:56.412Z,51.25
2022-12-23T07:50:23.829Z,107.72
2022-12-23T07:52:51.209Z,69.95
2022-12-23T07:55:17.898Z,56.33
2022-12-23T07:57:48.445Z,44.85
2022-12-23T08:00:15.428Z,41.78
2022-12-23T08:02:42.748Z,32.88
2022-12-23T08:05:10.258Z,30.23
2022-12-23T08:07:37.006Z,29.40
2022-12-23T08:10:04.883Z,25.75
2022-12-23T08:12:31.596Z,27.98
2022-12-23T08:14:58.297Z,25.02
2022-12-23T08:17:30.058Z,31.30
2022-12-23T08:19:57.244Z,34.22
2022-12-23T08:22:24.351Z,39.92
2022-12-23T08:24:51.066Z,35.97
2022-12-23T08:27:17.721Z,35.95
2022-12-23T08:29:44.588Z,39.90
2022-12-23T08:32:11.194Z,35.90
2022-12-23T08:34:38.122Z,40.00
2022-12-23T08:37:04.700Z,30.92
2022-12-23T08:39:31.533Z,35.70
2022-12-23T08:41:58.149Z,25.40
2022-12-23T08:44:27.927Z,23.20
2022-12-23T08:46:55.132Z,20.33
2022-12-23T08:49:21.806Z,21.15
2022-12-23T08:51:49.022Z,23.65
2022-12-23T08:54:16.032Z,33.80
2022-12-23T08:56:43.443Z,30.52
2022-12-23T08:59:18.755Z,38.85
2022-12-23T09:01:46.973Z,33.85
2022-12-23T09:04:13.708Z,24.42
2022-12-23T09:06:42.264Z,26.10
2022-12-23T09:09:11.620Z,30.55
2022-12-23T09:11:38.883Z,41.28
2022-12-23T09:14:06.667Z,25.92
2022-12-23T09:16:33.303Z,19.85
2022-12-23T09:18:59.970Z,26.25
2022-12-23T09:21:26.887Z,16.60
2022-12-23T09:23:53.540Z,17.75
2022-12-23T09:26:28.782Z,81.57
2022-12-23T09:28:56.424Z,202.13
2022-12-23T09:31:23.758Z,49.47
2022-12-23T09:33:53.464Z,48.35
2022-12-23T09:36:20.866Z,25.73
2022-12-23T09:38:47.622Z,27.73
2022-12-23T09:41:20.120Z,22.73
2022-12-23T09:44:22.527Z,26.80
2022-12-23T09:47:04.634Z,20.45
2022-12-23T09:49:33.879Z,25.75
2022-12-23T09:52:05.158Z,19.25
2022-12-23T09:55:01.333Z,14.82
2022-12-23T09:57:48.287Z,19.52
2022-12-23T10:00:17.059Z,21.67
2022-12-23T10:03:11.961Z,26.20
2022-12-23T10:06:00.417Z,102.75
2022-12-23T10:08:32.779Z,31.77
2022-12-23T10:11:25.301Z,21.33
2022-12-23T10:14:03.296Z,28.70
2022-12-23T10:16:39.640Z,29.80
2022-12-23T10:19:26.286Z,26.85
2022-12-23T10:22:00.692Z,41.35
2022-12-23T10:24:35.268Z,19.25
2022-12-23T10:27:23.625Z,43.25
2022-12-23T10:29:50.651Z,27.73
2022-12-23T10:32:17.226Z,30.02
2022-12-23T10:35:15.733Z,25.83
2022-12-23T10:37:55.420Z,54.15
2022-12-23T10:40:41.469Z,15.90
2022-12-23T10:43:39.493Z,47.25
2022-12-23T10:46:57.292Z,44.53
2022-12-23T10:49:29.618Z,50.65
2022-12-23T10:52:03.565Z,36.17
2022-12-23T10:54:34.897Z,22.80
2022-12-23T10:57:04.183Z,16.83
2022-12-23T10:59:35.765Z,11.13
2022-12-23T11:02:12.517Z,10.80
2022-12-23T11:04:44.768Z,14.60
2022-12-23T11:07:43.610Z,33.03
2022-12-23T11:10:13.302Z,14.32
2022-12-23T11:12:43.175Z,11.02
2022-12-23T11:15:38.489Z,10.25
2022-12-23T11:18:14.255Z,28.70
2022-12-23T11:20:43.619Z,28.38
2022-12-23T11:23:35.974Z,10.02
2022-12-23T11:26:07.115Z,8.50
2022-12-23T11:28:37.454Z,16.48
2022-12-23T11:31:11.840Z,7.65
2022-12-23T11:33:45.598Z,5.97
2022-12-23T11:38:52.530Z,7.85
2022-12-23T11:41:33.748Z,9.80
2022-12-23T11:44:18.650Z,12.23
2022-12-23T11:46:45.359Z,12.82
2022-12-23T11:49:26.873Z,8.52
2022-12-23T11:52:01.858Z,18.20
2022-12-23T11:54:28.944Z,20.90
2022-12-23T11:56:56.162Z,13.38
2022-12-23T11:59:33.817Z,13.73
2022-12-23T12:02:03.760Z,23.58
2022-12-23T12:04:34.806Z,14.32
2022-12-23T12:07:03.516Z,11.88
2022-12-23T12:09:32.087Z,12.75
2022-12-23T12:12:15.127Z,15.57
2022-12-23T12:14:48.740Z,10.98
2022-12-23T12:17:21.477Z,13.50
2022-12-23T12:19:58.521Z,11.87
2022-12-23T12:22:34.837Z,12.60
2022-12-23T12:25:12.407Z,38.13
2022-12-23T12:27:40.416Z,17.90
2022-12-23T12:30:16.032Z,20.90
2022-12-23T12:33:05.642Z,11.13
2022-12-23T12:35:44.470Z,9.10
2022-12-23T12:38:21.755Z,12.43
2022-12-23T12:40:52.256Z,10.60
2022-12-23T12:43:32.527Z,8.32
2022-12-23T12:46:11.053Z,8.95
2022-12-23T12:48:39.007Z,10.50
2022-12-23T12:51:16.070Z,20.63
2022-12-23T12:53:52.635Z,9.68
2022-12-23T12:56:28.527Z,162.20
2022-12-23T12:58:55.151Z,76.28
2022-12-23T13:01:33.141Z,36.42
2022-12-23T13:04:26.511Z,13.38
2022-12-23T13:07:05.118Z,12.07
2022-12-23T13:10:00.808Z,11.13
2022-12-23T13:12:39.786Z,9.90
2022-12-23T13:15:19.073Z,16.85
2022-12-23T13:18:01.807Z,10.40
2022-12-23T13:20:36.685Z,13.75
2022-12-23T13:23:43.557Z,27.13
2022-12-23T13:26:29.419Z,17.05
2022-12-23T13:29:14.638Z,17.83
2022-12-23T13:31:43.898Z,18.05
2022-12-23T13:34:33.834Z,24.25
2022-12-23T13:37:00.488Z,11.57
2022-12-23T13:39:39.508Z,12.57
2022-12-23T13:42:12.390Z,12.98
2022-12-23T13:44:39.427Z,11.00
2022-12-23T13:47:44.029Z,10.27
2022-12-23T13:50:17.590Z,10.20
2022-12-23T13:55:57.850Z,10.75
2022-12-23T13:58:27.118Z,16.52
2022-12-23T14:01:21.042Z,12.10
2022-12-23T14:06:44.011Z,12.00
2022-12-23T14:09:16.114Z,34.10
2022-12-23T14:11:44.953Z,58.33
2022-12-23T14:14:21.519Z,12.23
2022-12-23T14:17:02.664Z,11.32
2022-12-23T14:19:38.282Z,19.55
2022-12-23T14:22:24.960Z,17.00
2022-12-23T14:25:20.880Z,18.63
2022-12-23T14:28:06.097Z,22.20
2022-12-23T14:30:42.632Z,25.48
2022-12-23T14:33:27.783Z,22.58
2022-12-23T14:36:13.033Z,27.23
2022-12-23T14:38:40.268Z,38.42
2022-12-23T14:41:23.080Z,48.75
2022-12-23T14:43:55.872Z,83.73
2022-12-23T14:46:31.128Z,119.82
2022-12-23T14:49:16.259Z,127.13
2022-12-23T14:51:45.461Z,107.18
2022-12-23T14:54:14.909Z,113.65
2022-12-23T14:56:42.055Z,138.23
2022-12-23T14:59:22.241Z,122.97
2022-12-23T15:01:55.429Z,141.93
2022-12-23T15:04:28.624Z,146.15
2022-12-23T15:07:13.366Z,154.98
2022-12-23T15:09:45.323Z,146.27
2022-12-23T15:12:38.819Z,91.90
2022-12-23T15:15:07.263Z,96.25
2022-12-23T15:17:36.771Z,82.82
2022-12-23T15:20:18.552Z,85.68
2022-12-23T15:22:46.225Z,93.50
2022-12-23T15:25:24.053Z,127.72
2022-12-23T15:28:00.862Z,120.47
2022-12-23T15:30:31.189Z,160.48
2022-12-23T15:33:01.732Z,147.65
2022-12-23T15:35:34.617Z,136.65
2022-12-23T15:38:02.868Z,152.30
2022-12-23T15:40:37.640Z,171.10
2022-12-23T15:43:20.166Z,121.93
2022-12-23T15:45:46.756Z,123.30
2022-12-23T15:48:24.141Z,165.15
2022-12-23T15:50:54.616Z,199.10
2022-12-23T15:53:21.276Z,182.00
2022-12-23T15:55:49.215Z,157.63
2022-12-23T15:58:21.225Z,126.10
2022-12-23T16:00:57.707Z,33.00
2022-12-23T16:03:40.307Z,60.25
2022-12-23T16:06:29.041Z,51.63
2022-12-23T16:09:06.735Z,58.72
2022-12-23T16:11:59.518Z,109.18
2022-12-23T16:14:40.744Z,76.95
2022-12-23T16:17:07.266Z,80.88
2022-12-23T16:20:21.372Z,71.07
2022-12-23T16:22:51.172Z,72.25
2022-12-23T16:25:23.049Z,79.82
2022-12-23T16:27:54.394Z,66.00
2022-12-23T16:30:25.822Z,84.20
2022-12-23T16:32:56.057Z,60.67
2022-12-23T16:35:34.717Z,67.63
2022-12-23T16:38:25.610Z,66.65
2022-12-23T16:40:57.170Z,65.78
2022-12-23T16:43:25.033Z,72.80
2022-12-23T16:45:55.499Z,71.20
2022-12-23T16:48:34.539Z,78.85
2022-12-23T16:51:04.062Z,80.28
2022-12-23T16:53:30.667Z,82.45
2022-12-23T16:56:00.923Z,95.28
2022-12-23T16:58:28.363Z,86.93
2022-12-23T17:00:55.945Z,69.47
2022-12-23T17:03:22.587Z,84.28
2022-12-23T17:05:49.436Z,112.72
2022-12-23T17:08:16.077Z,105.60
2022-12-23T17:10:44.768Z,109.90
2022-12-23T17:13:17.704Z,146.05
2022-12-23T17:15:45.081Z,74.28
2022-12-23T17:18:14.598Z,81.13
2022-12-23T17:20:43.362Z,104.03
2022-12-23T17:23:31.132Z,66.05
2022-12-23T17:25:58.060Z,74.80
2022-12-23T17:28:30.274Z,65.93
2022-12-23T17:30:57.022Z,52.45
2022-12-23T17:33:26.738Z,46.80
2022-12-23T17:35:53.578Z,33.95
2022-12-23T17:38:20.132Z,27.63
2022-12-23T17:40:47.239Z,37.55
2022-12-23T17:43:16.859Z,24.05
2022-12-23T17:45:44.482Z,27.45
2022-12-23T17:48:17.951Z,26.60
2022-12-23T17:50:47.820Z,19.33
2022-12-23T17:53:16.312Z,45.97
2022-12-23T17:55:43.295Z,28.85
2022-12-23T17:58:10.260Z,37.22
2022-12-23T18:00:38.278Z,46.65
2022-12-23T18:03:06.410Z,60.70
2022-12-23T18:05:35.744Z,68.32
2022-12-23T18:08:03.383Z,77.50
2022-12-23T18:10:37.262Z,108.93
2022-12-23T18:13:07.965Z,119.18
2022-12-23T18:15:40.673Z,105.10
2022-12-23T18:18:31.315Z,138.57
2022-12-23T18:21:05.602Z,88.07
2022-12-23T18:23:33.650Z,84.32
2022-12-23T18:26:00.840Z,97.88
2022-12-23T18:28:27.619Z,105.40
2022-12-23T18:30:57.715Z,106.70
2022-12-23T18:33:28.654Z,87.90
2022-12-23T18:35:55.741Z,77.30
2022-12-23T18:38:22.871Z,86.82
2022-12-23T18:40:52.803Z,85.60
2022-12-23T18:43:22.632Z,62.03
2022-12-23T18:45:53.199Z,60.65
2022-12-23T18:48:20.297Z,70.28
2022-12-23T18:50:47.041Z,62.38
2022-12-23T18:53:23.889Z,68.53
2022-12-23T18:55:52.501Z,70.35
2022-12-23T18:58:19.893Z,83.18
2022-12-23T19:00:47.872Z,104.97
2022-12-23T19:03:31.361Z,91.38
2022-12-23T19:08:27.675Z,55.35
2022-12-23T19:10:55.571Z,46.72
2022-12-23T19:13:22.375Z,41.13
2022-12-23T19:15:49.169Z,46.08
2022-12-23T19:18:21.358Z,47.38
2022-12-23T19:20:48.986Z,119.05
2022-12-23T19:23:15.866Z,96.13
2022-12-23T19:25:49.212Z,120.45
2022-12-23T19:28:22.051Z,88.22
2022-12-23T19:30:49.270Z,78.53
2022-12-23T19:33:16.316Z,65.15
2022-12-23T19:35:44.165Z,60.38
2022-12-23T19:38:12.349Z,77.85
2022-12-23T19:40:39.437Z,75.13
2022-12-23T19:43:06.088Z,85.68
2022-12-23T19:45:32.666Z,97.70
2022-12-23T19:47:59.391Z,73.60
2022-12-23T19:50:27.256Z,97.43
2022-12-23T19:52:56.339Z,82.10
2022-12-23T19:55:23.255Z,69.93
2022-12-23T19:57:49.870Z,67.90
2022-12-23T20:00:16.680Z,47.67
2022-12-23T20:02:43.460Z,44.97
2022-12-23T20:05:10.279Z,45.13
2022-12-23T20:07:37.388Z,43.00
2022-12-23T20:10:05.206Z,35.00
2022-12-23T20:12:31.926Z,32.55
2022-12-23T20:14:58.537Z,29.52
2022-12-23T20:17:25.127Z,26.90
2022-12-23T20:19:51.778Z,21.52
2022-12-23T20:22:18.394Z,44.13
2022-12-23T20:24:45.189Z,54.72
2022-12-23T20:27:14.801Z,38.92
2022-12-23T20:29:42.439Z,42.97
2022-12-23T20:32:09.104Z,36.63
2022-12-23T20:34:39.581Z,28.13
2022-12-23T20:37:07.113Z,32.22
2022-12-23T20:39:34.084Z,37.30
2022-12-23T20:42:00.637Z,45.33
2022-12-23T20:44:36.059Z,47.60
2022-12-23T20:47:03.963Z,58.25
2022-12-23T20:49:31.281Z,56.72
2022-12-23T20:51:57.913Z,66.53
2022-12-23T20:54:31.636Z,44.78
2022-12-23T20:56:59.571Z,50.65
2022-12-23T20:59:26.142Z,59.35
2022-12-23T21:01:52.897Z,42.83
2022-12-23T21:04:20.454Z,52.25
2022-12-23T21:06:47.150Z,51.53
2022-12-23T21:09:15.060Z,62.65
2022-12-23T21:11:44.047Z,41.38
2022-12-23T21:14:11.287Z,32.75
2022-12-23T21:16:38.661Z,164.93
2022-12-23T21:19:14.172Z,129.75
2022-12-23T21:21:40.897Z,124.35
2022-12-23T21:24:07.537Z,76.47
2022-12-23T21:26:35.579Z,64.00
2022-12-23T21:29:04.561Z,43.05
2022-12-23T21:31:33.028Z,40.03
2022-12-23T21:33:59.631Z,40.28
2022-12-23T21:36:30.986Z,42.25
2022-12-23T21:38:58.298Z,34.13
2022-12-23T21:41:28.371Z,49.72
2022-12-23T21:43:56.926Z,37.05
2022-12-23T21:46:24.345Z,29.48
2022-12-23T21:48:51.534Z,33.60
2022-12-23T21:51:21.608Z,30.60
2022-12-23T21:53:50.625Z,29.45
2022-12-23T21:56:19.834Z,30.35
2022-12-23T21:58:47.147Z,33.65
2022-12-23T22:01:16.231Z,28.05
2022-12-23T22:03:43.484Z,40.90
2022-12-23T22:06:16.007Z,41.08
2022-12-23T22:08:43.106Z,37.97
2022-12-23T22:11:12.499Z,38.67
2022-12-23T22:13:39.935Z,45.42
2022-12-23T22:16:11.987Z,50.65
2022-12-23T22:18:39.558Z,52.95
2022-12-23T22:21:07.833Z,49.53
2022-12-23T22:23:34.865Z,39.50
2022-12-23T22:26:01.620Z,41.75
2022-12-23T22:28:32.158Z,44.22
2022-12-23T22:31:08.387Z,46.67
2022-12-23T22:33:35.226Z,56.50
2022-12-23T22:36:01.889Z,90.57
2022-12-23T22:38:28.517Z,81.15
2022-12-23T22:40:55.139Z,111.13
2022-12-23T22:43:21.770Z,93.63
2022-12-23T22:45:55.906Z,89.60
2022-12-23T22:48:23.236Z,76.47
2022-12-23T22:50:49.833Z,81.78
2022-12-23T22:53:16.683Z,74.75
2022-12-23T22:55:43.292Z,69.72
2022-12-23T22:58:09.943Z,59.67
2022-12-23T23:00:36.605Z,59.85
2022-12-23T23:03:03.607Z,47.20
2022-12-23T23:05:30.299Z,41.90
2022-12-23T23:07:56.948Z,45.33
2022-12-23T23:10:23.507Z,44.03
2022-12-23T23:12:50.052Z,43.75
2022-12-23T23:15:16.894Z,45.30
2022-12-23T23:17:43.429Z,39.08
2022-12-23T23:20:10.204Z,35.47
2022-12-23T23:22:36.835Z,32.10
2022-12-23T23:25:03.793Z,23.23
2022-12-23T23:27:30.347Z,27.92
2022-12-23T23:29:57.003Z,23.75
2022-12-23T23:32:23.628Z,29.15
2022-12-23T23:34:50.234Z,25.13
2022-12-23T23:37:16.771Z,29.42
2022-12-23T23:39:43.415Z,20.75
2022-12-23T23:42:10.610Z,24.15
2022-12-23T23:44:37.211Z,33.08
2022-12-23T23:47:03.871Z,32.25
2022-12-23T23:49:30.432Z,34.17
2022-12-23T23:51:56.989Z,34.75
2022-12-23T23:54:23.619Z,35.08
2022-12-23T23:56:50.196Z,37.75
2022-12-23T23:59:16.750Z,40.50
